• Join FlightAware (Why Join?)
  • Login
  • US Flag 
08:32AM EST


 

Airport Tracker/Info


-or-


 

Live Flight TrackerFlight Track Log ✈ N1903G ✈ 18-May-2012 ✈ KOKC - KMDW

Flight Track Log - Related Links

Times and Time Zones

All times are in EDT time to prevent confusion due to time zone crossing. See the N1903G flight status page for this flight to view local times or setup timezone preferences in your user account.

Time Position Orientation Groundspeed Altitude Reporting Facility
EDT Latitude Longitude Course Direction KTS MPH feet Rate Location/Type
12:02PM 35.3789 -97.5944 173° South 158 182 2,100  Level Fort Worth Center
12:03PM 35.3414 -97.5892 96° East 188 216 4,800 3,060 Climbing Fort Worth Center
12:04PM 35.3353 -97.5206 59° Northeast 268 308 7,400 2,940 Climbing Fort Worth Center
12:06PM 35.4458 -97.2953 69° East 333 383 14,900 2,280 Climbing Kansas City Center
12:07PM 35.4753 -97.2019 67° East 345 397 15,200 1,680 Climbing Kansas City Center
12:08PM 35.5219 -97.0656 58° Northeast 376 433 18,300 3,180 Climbing Kansas City Center
12:09PM 35.5786 -96.9525 56° Northeast 384 442 21,600 2,340 Climbing Kansas City Center
12:10PM 35.6372 -96.8444 56° Northeast 378 435 23,000 1,440 Climbing Kansas City Center
12:11PM 35.7042 -96.7211 56° Northeast 400 460 24,500 2,100 Climbing Kansas City Center
12:12PM 35.7689 -96.6025 57° Northeast 408 470 27,300 2,460 Climbing Kansas City Center
12:13PM 35.8294 -96.4864 57° Northeast 406 467 29,500 1,800 Climbing Kansas City Center
12:14PM 35.8875 -96.3750 56° Northeast 406 467 31,000 1,260 Climbing Kansas City Center
12:15PM 35.9519 -96.2558 57° Northeast 406 467 32,100 1,020 Climbing Kansas City Center
12:16PM 36.0142 -96.1367 57° Northeast 406 467 33,100 1,200 Climbing Kansas City Center
12:17PM 36.0825 -96.0069 57° Northeast 406 467 34,600 1,380 Climbing Kansas City Center
12:18PM 36.1444 -95.8872 45° Northeast 406 467 35,900 660 Climbing Kansas City Center
12:19PM 36.2250 -95.7883 44° Northeast 411 473 36,000  Climbing Kansas City Center
12:20PM 36.3094 -95.6867 44° Northeast 411 473 36,000  Level Kansas City Center
12:21PM 36.4000 -95.5794 46° Northeast 424 488 36,000  Level Kansas City Center
12:22PM 36.4825 -95.4747 43° Northeast 442 509 36,000 300 Level Kansas City Center
12:23PM 36.5856 -95.3544 44° Northeast 460 529 36,700 480 Climbing Kansas City Center
12:24PM 36.6656 -95.2594 45° Northeast 455 524 37,000 600 Climbing Kansas City Center
12:25PM 36.7536 -95.1489 44° Northeast 450 518 38,000 960 Climbing Kansas City Center
12:26PM 36.8378 -95.0483 44° Northeast 429 494 39,000 480 Climbing Kansas City Center
12:27PM 36.9258 -94.9425 45° Northeast 424 488 39,000  Level Kansas City Center
12:28PM 37.0117 -94.8364 44° Northeast 424 488 39,000  Level Kansas City Center
12:29PM 37.1017 -94.7275 45° Northeast 430 495 39,000  Level Kansas City Center
12:30PM 37.1914 -94.6156 45° Northeast 435 501 39,000  Level Kansas City Center
12:31PM 37.2811 -94.5033 44° Northeast 435 501 39,000  Level Kansas City Center
12:32PM 37.3728 -94.3936 46° Northeast 440 506 39,000  Level Kansas City Center
12:33PM 37.4603 -94.2783 45° Northeast 440 506 39,000  Level Kansas City Center
12:34PM 37.5519 -94.1628 44° Northeast 445 512 39,000  Level Kansas City Center
12:35PM 37.6517 -94.0417 46° Northeast 450 518 39,000  Level Kansas City Center
12:36PM 37.7428 -93.9231 45° Northeast 455 524 39,000  Level Kansas City Center
12:37PM 37.8319 -93.8119 46° Northeast 455 524 39,000  Level Kansas City Center
12:38PM 37.9228 -93.6925 45° Northeast 460 529 39,000  Level Kansas City Center
12:39PM 38.0139 -93.5756 45° Northeast 460 529 39,000  Level Kansas City Center
12:40PM 38.1047 -93.4611 45° Northeast 460 529 39,000  Level Kansas City Center
12:41PM 38.1972 -93.3433 46° Northeast 460 529 39,000  Level Kansas City Center
12:42PM 38.2858 -93.2283 46° Northeast 460 529 39,000  Level Kansas City Center
12:43PM 38.3764 -93.1103 46° Northeast 460 529 39,000  Level Kansas City Center
12:44PM 38.4644 -92.9944 45° Northeast 460 529 39,000  Level Kansas City Center
12:45PM 38.5383 -92.9000 46° Northeast 460 529 39,000  Level Kansas City Center
12:46PM 38.6344 -92.7706 45° Northeast 460 529 39,000  Level Kansas City Center
12:47PM 38.7267 -92.6511 46° Northeast 460 529 39,000 -180 Level Kansas City Center
12:48PM 38.8164 -92.5317 46° Northeast 460 529 38,700 -540 Descending Kansas City Center
12:49PM 38.9081 -92.4092 47° Northeast 460 529 38,000 -780 Descending Kansas City Center
12:50PM 38.9975 -92.2836 44° Northeast 460 529 37,200 -540 Descending Kansas City Center
12:51PM 39.0933 -92.1631 49° Northeast 460 529 37,000 -120 Descending Kansas City Center
12:52PM 39.1783 -92.0372 50° Northeast 460 529 37,000  Level Kansas City Center
12:53PM 39.2611 -91.9083 48° Northeast 466 536 37,000 -120 Level Kansas City Center
12:54PM 39.3497 -91.7789 49° Northeast 460 529 36,800 -660 Descending Kansas City Center
12:55PM 39.4344 -91.6522 49° Northeast 466 536 35,700 -1,320 Descending Kansas City Center
12:56PM 39.5208 -91.5250 49° Northeast 466 536 34,200 -1,500 Descending Kansas City Center
12:57PM 39.6094 -91.3947 49° Northeast 466 536 32,700 -1,500 Descending Kansas City Center
12:58PM 39.6975 -91.2639 48° Northeast 471 542 31,200 -900 Descending Kansas City Center
12:59PM 39.7878 -91.1356 49° Northeast 471 542 31,000 -120 Descending Kansas City Center
01:01PM 39.9428 -90.9014 49° Northeast 480 552 31,000  Level Chicago Center
01:02PM 40.0489 -90.7439 47° Northeast 475 547 31,000  Level Chicago Center
01:03PM 40.1317 -90.6261 50° Northeast 482 555 31,000  Level Chicago Center
01:04PM 40.2250 -90.4811 49° Northeast 482 555 31,000  Level Chicago Center
01:05PM 40.3136 -90.3492 49° Northeast 477 549 31,000 -540 Level Chicago Center
01:06PM 40.4003 -90.2197 50° Northeast 477 549 30,000 -1,500 Descending Chicago Center
01:07PM 40.4844 -90.0869 47° Northeast 477 549 28,100 -1,980 Descending Chicago Center
01:08PM 40.5667 -89.9703 52° Northeast 477 549 26,100 -1,980 Descending Chicago Center
01:09PM 40.6400 -89.8453 53° Northeast 459 528 24,200 -1,860 Descending Chicago Center
01:10PM 40.7094 -89.7253 61° Northeast 427 491 22,400 -1,800 Descending Chicago Center
01:11PM 40.7617 -89.5994 60° Northeast 401 461 20,700 -1,680 Descending Chicago Center
01:12PM 40.8161 -89.4733 59° Northeast 396 456 19,100 -1,620 Descending Chicago Center
01:13PM 40.8706 -89.3528 61° Northeast 385 443 17,500 -1,080 Descending Chicago Center
01:14PM 40.9164 -89.2428 60° Northeast 359 413 17,000 -960 Descending Chicago Center
01:15PM 40.9600 -89.1408 79° East 338 389 15,600 -1,680 Descending Chicago Center
01:16PM 40.9764 -89.0281 89° East 315 362 13,700 -1,920 Descending Chicago Center
01:17PM 40.9781 -88.9181 63° Northeast 305 351 11,800 -1,920 Descending Chicago Center
01:18PM 41.0131 -88.8272 47° Northeast 275 316 9,900 -1,860 Descending Chicago Center
01:19PM 41.0669 -88.7494 48° Northeast 280 322 8,100 -1,620 Descending Chicago Center
01:20PM 41.1206 -88.6692 33° Northeast 285 328 6,700 -1,080 Descending Chicago Center
01:21PM 41.1850 -88.6133 32° Northeast 280 322 6,000 -360 Descending Chicago Center
01:22PM 41.2533 -88.5572 31° Northeast 280 322 6,000  Level Chicago Center
01:23PM 41.3239 -88.5011 31° Northeast 280 322 6,000  Level Chicago Center
01:24PM 41.3903 -88.4475 32° Northeast 280 322 6,000  Level Chicago Center
01:25PM 41.4586 -88.3914 39° Northeast 280 322 6,000  Level Chicago Center
01:26PM 41.5164 -88.3294 65° Northeast 274 315 6,000  Level Chicago Center
01:27PM 41.5489 -88.2344 65° Northeast 274 315 6,000  Level Chicago Center
01:28PM 41.5811 -88.1425 80° East 274 315 6,000 -300 Level Chicago Center
01:29PM 41.5947 -88.0422 86° East 274 315 5,400 -540 Descending Chicago Center
01:30PM 41.5997 -87.9422 86° East 263 303 5,000 -240 Descending Chicago Center
01:31PM 41.6047 -87.8392 92° East 263 303 5,000 -180 Level Chicago Center
01:34PM 41.6000 -87.6667 90° East 188 216 4,600 -480 Descending Chicago TRACON
01:35PM 41.6000 -87.6167 37° Northeast 197 227 3,600 -840 Descending Chicago TRACON
01:36PM 41.6333 -87.5833 334° Northwest 194 223 3,000 -300 Descending Chicago TRACON
01:37PM 41.6833 -87.6167 312° West 183 211 3,000 -360 Level Chicago TRACON
01:38PM 41.7167 -87.6667 349° North 179 206 2,300 -480 Descending Chicago TRACON
01:40PM 41.7833 -87.6833 323° Northwest 160 184 1,700 -360 Descending Chicago TRACON
01:40PM 41.8167 -87.7167 323° Northwest 152 175 1,300 -480 Descending Chicago TRACON